sensor_id;sensor_type;location;lat;lon;timestamp;P1;durP1;ratioP1;P2;durP2;ratioP2
4422;SDS011;2224;49.814;8.650;2022-07-09T00:00:21;4.07;;;3.70;;
4422;SDS011;2224;49.814;8.650;2022-07-09T00:02:46;7.53;;;3.67;;
4422;SDS011;2224;49.814;8.650;2022-07-09T00:05:12;5.50;;;3.63;;
4422;SDS011;2224;49.814;8.650;2022-07-09T00:07:38;5.80;;;3.57;;
4422;SDS011;2224;49.814;8.650;2022-07-09T00:10:04;3.67;;;3.30;;
4422;SDS011;2224;49.814;8.650;2022-07-09T00:12:30;5.43;;;3.40;;
4422;SDS011;2224;49.814;8.650;2022-07-09T00:14:55;5.90;;;3.60;;
4422;SDS011;2224;49.814;8.650;2022-07-09T00:17:20;3.93;;;3.37;;
4422;SDS011;2224;49.814;8.650;2022-07-09T00:19:46;4.50;;;3.53;;
4422;SDS011;2224;49.814;8.650;2022-07-09T00:22:11;3.63;;;3.33;;
4422;SDS011;2224;49.814;8.650;2022-07-09T00:24:37;3.73;;;3.20;;
4422;SDS011;2224;49.814;8.650;2022-07-09T00:27:02;4.20;;;3.43;;
4422;SDS011;2224;49.814;8.650;2022-07-09T00:29:27;4.10;;;3.50;;
4422;SDS011;2224;49.814;8.650;2022-07-09T00:31:53;36.07;;;3.97;;
4422;SDS011;2224;49.814;8.650;2022-07-09T00:34:18;4.27;;;3.43;;
4422;SDS011;2224;49.814;8.650;2022-07-09T00:36:43;3.70;;;3.30;;
4422;SDS011;2224;49.814;8.650;2022-07-09T00:39:09;5.33;;;4.57;;
4422;SDS011;2224;49.814;8.650;2022-07-09T00:41:34;6.07;;;3.93;;
4422;SDS011;2224;49.814;8.650;2022-07-09T00:44:00;3.40;;;3.13;;
4422;SDS011;2224;49.814;8.650;2022-07-09T00:46:25;4.40;;;3.63;;
4422;SDS011;2224;49.814;8.650;2022-07-09T00:48:50;3.83;;;3.10;;
4422;SDS011;2224;49.814;8.650;2022-07-09T00:51:19;6.80;;;3.83;;
4422;SDS011;2224;49.814;8.650;2022-07-09T00:53:45;3.80;;;3.40;;
4422;SDS011;2224;49.814;8.650;2022-07-09T00:56:11;6.20;;;3.70;;
4422;SDS011;2224;49.814;8.650;2022-07-09T00:58:36;3.87;;;3.13;;
4422;SDS011;2224;49.814;8.650;2022-07-09T01:01:02;4.43;;;3.27;;
4422;SDS011;2224;49.814;8.650;2022-07-09T01:03:28;3.60;;;3.33;;
4422;SDS011;2224;49.814;8.650;2022-07-09T01:05:53;4.03;;;3.40;;
4422;SDS011;2224;49.814;8.650;2022-07-09T01:08:21;4.87;;;3.20;;
4422;SDS011;2224;49.814;8.650;2022-07-09T01:10:47;3.83;;;3.00;;
4422;SDS011;2224;49.814;8.650;2022-07-09T01:13:13;4.70;;;3.40;;
4422;SDS011;2224;49.814;8.650;2022-07-09T01:15:38;5.07;;;3.43;;
4422;SDS011;2224;49.814;8.650;2022-07-09T01:18:04;4.13;;;3.20;;
4422;SDS011;2224;49.814;8.650;2022-07-09T01:20:29;3.53;;;3.20;;
4422;SDS011;2224;49.814;8.650;2022-07-09T01:22:55;4.13;;;3.03;;
4422;SDS011;2224;49.814;8.650;2022-07-09T01:25:25;3.20;;;2.90;;
4422;SDS011;2224;49.814;8.650;2022-07-09T01:27:53;3.60;;;2.87;;
4422;SDS011;2224;49.814;8.650;2022-07-09T01:30:25;3.73;;;3.20;;
4422;SDS011;2224;49.814;8.650;2022-07-09T01:32:52;4.60;;;3.20;;
4422;SDS011;2224;49.814;8.650;2022-07-09T01:35:18;3.20;;;2.90;;
4422;SDS011;2224;49.814;8.650;2022-07-09T01:37:43;5.80;;;3.50;;
4422;SDS011;2224;49.814;8.650;2022-07-09T01:40:09;3.13;;;2.93;;
4422;SDS011;2224;49.814;8.650;2022-07-09T01:42:35;4.23;;;3.37;;
4422;SDS011;2224;49.814;8.650;2022-07-09T01:45:00;3.57;;;3.07;;
4422;SDS011;2224;49.814;8.650;2022-07-09T01:47:25;4.00;;;3.07;;
4422;SDS011;2224;49.814;8.650;2022-07-09T01:49:51;6.43;;;3.30;;
4422;SDS011;2224;49.814;8.650;2022-07-09T01:52:16;2.83;;;2.37;;
4422;SDS011;2224;49.814;8.650;2022-07-09T01:54:41;3.37;;;3.07;;
4422;SDS011;2224;49.814;8.650;2022-07-09T01:57:07;3.60;;;3.07;;
4422;SDS011;2224;49.814;8.650;2022-07-09T01:59:32;3.70;;;3.40;;
4422;SDS011;2224;49.814;8.650;2022-07-09T02:01:57;4.87;;;2.80;;
4422;SDS011;2224;49.814;8.650;2022-07-09T02:04:23;3.13;;;2.60;;
4422;SDS011;2224;49.814;8.650;2022-07-09T02:06:48;3.50;;;3.20;;
4422;SDS011;2224;49.814;8.650;2022-07-09T02:09:13;4.43;;;4.03;;
4422;SDS011;2224;49.814;8.650;2022-07-09T02:11:39;3.27;;;2.73;;
4422;SDS011;2224;49.814;8.650;2022-07-09T02:14:04;3.30;;;3.00;;
4422;SDS011;2224;49.814;8.650;2022-07-09T02:16:30;3.40;;;2.90;;
4422;SDS011;2224;49.814;8.650;2022-07-09T02:18:55;3.80;;;3.50;;
4422;SDS011;2224;49.814;8.650;2022-07-09T02:21:20;3.50;;;3.00;;
4422;SDS011;2224;49.814;8.650;2022-07-09T02:23:45;3.43;;;3.13;;
4422;SDS011;2224;49.814;8.650;2022-07-09T02:26:12;3.60;;;3.30;;
4422;SDS011;2224;49.814;8.650;2022-07-09T02:28:37;3.70;;;3.33;;
4422;SDS011;2224;49.814;8.650;2022-07-09T02:31:02;3.60;;;3.30;;
4422;SDS011;2224;49.814;8.650;2022-07-09T02:33:28;3.83;;;3.20;;
4422;SDS011;2224;49.814;8.650;2022-07-09T02:35:55;5.90;;;3.30;;
4422;SDS011;2224;49.814;8.650;2022-07-09T02:38:21;4.50;;;3.90;;
4422;SDS011;2224;49.814;8.650;2022-07-09T02:40:47;3.90;;;3.60;;
4422;SDS011;2224;49.814;8.650;2022-07-09T02:43:12;4.00;;;3.53;;
4422;SDS011;2224;49.814;8.650;2022-07-09T02:45:38;3.63;;;2.90;;
4422;SDS011;2224;49.814;8.650;2022-07-09T02:48:03;3.40;;;3.03;;
4422;SDS011;2224;49.814;8.650;2022-07-09T02:50:29;6.57;;;3.30;;
4422;SDS011;2224;49.814;8.650;2022-07-09T02:52:54;3.23;;;2.90;;
4422;SDS011;2224;49.814;8.650;2022-07-09T02:55:20;4.03;;;2.90;;
4422;SDS011;2224;49.814;8.650;2022-07-09T02:57:45;3.43;;;2.80;;
4422;SDS011;2224;49.814;8.650;2022-07-09T03:00:11;5.30;;;3.20;;
4422;SDS011;2224;49.814;8.650;2022-07-09T03:02:36;3.63;;;3.10;;
4422;SDS011;2224;49.814;8.650;2022-07-09T03:05:02;3.50;;;3.20;;
4422;SDS011;2224;49.814;8.650;2022-07-09T03:07:28;8.43;;;2.93;;
4422;SDS011;2224;49.814;8.650;2022-07-09T03:09:53;4.13;;;3.27;;
4422;SDS011;2224;49.814;8.650;2022-07-09T03:12:19;3.90;;;2.60;;
4422;SDS011;2224;49.814;8.650;2022-07-09T03:14:44;5.53;;;3.27;;
4422;SDS011;2224;49.814;8.650;2022-07-09T03:17:10;5.40;;;3.33;;
4422;SDS011;2224;49.814;8.650;2022-07-09T03:19:38;3.13;;;2.80;;
4422;SDS011;2224;49.814;8.650;2022-07-09T03:22:06;4.77;;;3.13;;
4422;SDS011;2224;49.814;8.650;2022-07-09T03:25:03;4.80;;;3.47;;
4422;SDS011;2224;49.814;8.650;2022-07-09T03:27:31;3.07;;;2.77;;
4422;SDS011;2224;49.814;8.650;2022-07-09T03:29:57;3.30;;;3.00;;
4422;SDS011;2224;49.814;8.650;2022-07-09T03:32:24;5.63;;;3.40;;
4422;SDS011;2224;49.814;8.650;2022-07-09T03:34:50;4.03;;;3.33;;
4422;SDS011;2224;49.814;8.650;2022-07-09T03:37:17;4.03;;;3.03;;
4422;SDS011;2224;49.814;8.650;2022-07-09T03:39:45;3.83;;;3.00;;
4422;SDS011;2224;49.814;8.650;2022-07-09T03:42:14;3.50;;;3.13;;
4422;SDS011;2224;49.814;8.650;2022-07-09T03:44:40;4.07;;;2.93;;
4422;SDS011;2224;49.814;8.650;2022-07-09T03:47:06;6.53;;;3.40;;
4422;SDS011;2224;49.814;8.650;2022-07-09T03:49:32;3.83;;;3.23;;
4422;SDS011;2224;49.814;8.650;2022-07-09T03:51:59;3.23;;;2.93;;
4422;SDS011;2224;49.814;8.650;2022-07-09T03:54:25;5.60;;;3.13;;
4422;SDS011;2224;49.814;8.650;2022-07-09T03:56:50;2.87;;;2.63;;
4422;SDS011;2224;49.814;8.650;2022-07-09T03:59:16;4.43;;;3.07;;
4422;SDS011;2224;49.814;8.650;2022-07-09T04:01:42;3.80;;;3.43;;
4422;SDS011;2224;49.814;8.650;2022-07-09T04:04:07;4.57;;;3.57;;
4422;SDS011;2224;49.814;8.650;2022-07-09T04:06:32;3.90;;;3.50;;
4422;SDS011;2224;49.814;8.650;2022-07-09T04:08:58;4.10;;;3.10;;
4422;SDS011;2224;49.814;8.650;2022-07-09T04:11:28;4.53;;;3.77;;
4422;SDS011;2224;49.814;8.650;2022-07-09T04:13:54;6.47;;;5.87;;
4422;SDS011;2224;49.814;8.650;2022-07-09T04:16:19;4.60;;;4.20;;
4422;SDS011;2224;49.814;8.650;2022-07-09T04:18:45;4.03;;;3.67;;
4422;SDS011;2224;49.814;8.650;2022-07-09T04:21:10;6.13;;;3.97;;
4422;SDS011;2224;49.814;8.650;2022-07-09T04:23:35;4.20;;;3.80;;
4422;SDS011;2224;49.814;8.650;2022-07-09T04:26:01;4.33;;;3.93;;
4422;SDS011;2224;49.814;8.650;2022-07-09T04:28:26;4.60;;;4.20;;
4422;SDS011;2224;49.814;8.650;2022-07-09T04:30:52;3.77;;;3.47;;
4422;SDS011;2224;49.814;8.650;2022-07-09T04:33:17;3.93;;;3.63;;
4422;SDS011;2224;49.814;8.650;2022-07-09T04:35:43;5.03;;;3.90;;
4422;SDS011;2224;49.814;8.650;2022-07-09T04:38:09;5.20;;;3.43;;
4422;SDS011;2224;49.814;8.650;2022-07-09T04:40:35;4.97;;;3.90;;
4422;SDS011;2224;49.814;8.650;2022-07-09T04:43:00;4.40;;;4.00;;
4422;SDS011;2224;49.814;8.650;2022-07-09T04:45:26;5.57;;;4.03;;
4422;SDS011;2224;49.814;8.650;2022-07-09T04:47:54;4.63;;;4.20;;
4422;SDS011;2224;49.814;8.650;2022-07-09T04:50:19;4.87;;;4.37;;
4422;SDS011;2224;49.814;8.650;2022-07-09T04:52:44;5.00;;;4.27;;
4422;SDS011;2224;49.814;8.650;2022-07-09T04:55:10;4.90;;;4.50;;
4422;SDS011;2224;49.814;8.650;2022-07-09T04:57:36;4.47;;;4.17;;
4422;SDS011;2224;49.814;8.650;2022-07-09T05:00:02;5.20;;;4.40;;
4422;SDS011;2224;49.814;8.650;2022-07-09T05:02:28;6.20;;;4.40;;
4422;SDS011;2224;49.814;8.650;2022-07-09T05:04:54;4.90;;;4.20;;
4422;SDS011;2224;49.814;8.650;2022-07-09T05:07:19;5.20;;;4.07;;
4422;SDS011;2224;49.814;8.650;2022-07-09T05:09:45;5.50;;;4.17;;
4422;SDS011;2224;49.814;8.650;2022-07-09T05:12:10;5.47;;;4.47;;
4422;SDS011;2224;49.814;8.650;2022-07-09T05:14:36;3.90;;;3.50;;
4422;SDS011;2224;49.814;8.650;2022-07-09T05:17:02;6.40;;;4.23;;
4422;SDS011;2224;49.814;8.650;2022-07-09T05:19:28;5.20;;;3.90;;
4422;SDS011;2224;49.814;8.650;2022-07-09T05:21:53;5.70;;;3.97;;
4422;SDS011;2224;49.814;8.650;2022-07-09T05:24:19;4.50;;;4.00;;
4422;SDS011;2224;49.814;8.650;2022-07-09T05:26:44;5.23;;;4.60;;
4422;SDS011;2224;49.814;8.650;2022-07-09T05:29:10;4.97;;;4.47;;
4422;SDS011;2224;49.814;8.650;2022-07-09T05:31:35;6.60;;;5.57;;
4422;SDS011;2224;49.814;8.650;2022-07-09T05:34:01;7.80;;;5.10;;
4422;SDS011;2224;49.814;8.650;2022-07-09T05:36:26;6.00;;;5.20;;
4422;SDS011;2224;49.814;8.650;2022-07-09T05:38:53;5.70;;;5.20;;
4422;SDS011;2224;49.814;8.650;2022-07-09T05:41:20;5.23;;;4.60;;
4422;SDS011;2224;49.814;8.650;2022-07-09T05:43:47;5.23;;;4.70;;
4422;SDS011;2224;49.814;8.650;2022-07-09T05:46:12;6.60;;;4.60;;
4422;SDS011;2224;49.814;8.650;2022-07-09T05:48:38;5.00;;;4.23;;
4422;SDS011;2224;49.814;8.650;2022-07-09T05:51:03;5.80;;;4.27;;
4422;SDS011;2224;49.814;8.650;2022-07-09T05:53:28;7.77;;;4.00;;
4422;SDS011;2224;49.814;8.650;2022-07-09T05:55:54;6.53;;;3.90;;
4422;SDS011;2224;49.814;8.650;2022-07-09T05:58:19;4.93;;;3.80;;
4422;SDS011;2224;49.814;8.650;2022-07-09T06:00:45;3.73;;;3.43;;
4422;SDS011;2224;49.814;8.650;2022-07-09T06:03:10;3.57;;;3.30;;
4422;SDS011;2224;49.814;8.650;2022-07-09T06:05:35;3.70;;;3.40;;
4422;SDS011;2224;49.814;8.650;2022-07-09T06:08:00;4.53;;;3.80;;
4422;SDS011;2224;49.814;8.650;2022-07-09T06:10:26;6.63;;;4.17;;
4422;SDS011;2224;49.814;8.650;2022-07-09T06:12:51;5.30;;;3.60;;
4422;SDS011;2224;49.814;8.650;2022-07-09T06:15:17;5.70;;;3.70;;
4422;SDS011;2224;49.814;8.650;2022-07-09T06:17:42;6.20;;;4.20;;
4422;SDS011;2224;49.814;8.650;2022-07-09T06:20:07;4.73;;;4.07;;
4422;SDS011;2224;49.814;8.650;2022-07-09T06:22:34;4.07;;;3.70;;
4422;SDS011;2224;49.814;8.650;2022-07-09T06:24:59;4.37;;;3.97;;
4422;SDS011;2224;49.814;8.650;2022-07-09T06:27:24;4.23;;;3.83;;
4422;SDS011;2224;49.814;8.650;2022-07-09T06:29:50;5.33;;;4.23;;
4422;SDS011;2224;49.814;8.650;2022-07-09T06:32:15;5.27;;;4.70;;
4422;SDS011;2224;49.814;8.650;2022-07-09T06:34:40;5.47;;;4.87;;
4422;SDS011;2224;49.814;8.650;2022-07-09T06:37:06;7.30;;;4.57;;
4422;SDS011;2224;49.814;8.650;2022-07-09T06:39:31;6.77;;;5.23;;
4422;SDS011;2224;49.814;8.650;2022-07-09T06:42:14;5.07;;;4.43;;
4422;SDS011;2224;49.814;8.650;2022-07-09T06:44:40;5.70;;;5.20;;
4422;SDS011;2224;49.814;8.650;2022-07-09T06:47:05;6.13;;;5.63;;
4422;SDS011;2224;49.814;8.650;2022-07-09T06:49:31;6.93;;;5.30;;
4422;SDS011;2224;49.814;8.650;2022-07-09T06:51:57;5.63;;;5.10;;
4422;SDS011;2224;49.814;8.650;2022-07-09T06:54:22;5.73;;;4.70;;
4422;SDS011;2224;49.814;8.650;2022-07-09T06:56:48;8.70;;;5.30;;
4422;SDS011;2224;49.814;8.650;2022-07-09T06:59:13;6.40;;;5.40;;
4422;SDS011;2224;49.814;8.650;2022-07-09T07:01:38;6.43;;;5.83;;
4422;SDS011;2224;49.814;8.650;2022-07-09T07:04:04;9.20;;;5.70;;
4422;SDS011;2224;49.814;8.650;2022-07-09T07:06:29;6.93;;;6.30;;
4422;SDS011;2224;49.814;8.650;2022-07-09T07:08:55;6.60;;;6.00;;
4422;SDS011;2224;49.814;8.650;2022-07-09T07:11:20;7.33;;;5.80;;
4422;SDS011;2224;49.814;8.650;2022-07-09T07:13:45;6.50;;;5.63;;
4422;SDS011;2224;49.814;8.650;2022-07-09T07:16:11;7.70;;;5.10;;
4422;SDS011;2224;49.814;8.650;2022-07-09T07:18:36;6.03;;;5.43;;
4422;SDS011;2224;49.814;8.650;2022-07-09T07:21:01;5.80;;;5.30;;
4422;SDS011;2224;49.814;8.650;2022-07-09T07:23:27;6.77;;;6.17;;
4422;SDS011;2224;49.814;8.650;2022-07-09T07:25:52;6.40;;;5.87;;
4422;SDS011;2224;49.814;8.650;2022-07-09T07:28:17;6.50;;;5.30;;
4422;SDS011;2224;49.814;8.650;2022-07-09T07:30:43;7.47;;;5.53;;
4422;SDS011;2224;49.814;8.650;2022-07-09T07:33:08;6.23;;;5.73;;
4422;SDS011;2224;49.814;8.650;2022-07-09T07:35:34;7.63;;;5.67;;
4422;SDS011;2224;49.814;8.650;2022-07-09T07:37:59;5.97;;;5.40;;
4422;SDS011;2224;49.814;8.650;2022-07-09T07:40:25;5.83;;;5.33;;
4422;SDS011;2224;49.814;8.650;2022-07-09T07:42:50;9.70;;;6.10;;
4422;SDS011;2224;49.814;8.650;2022-07-09T07:45:16;9.17;;;6.93;;
4422;SDS011;2224;49.814;8.650;2022-07-09T07:47:41;6.80;;;6.20;;
4422;SDS011;2224;49.814;8.650;2022-07-09T07:50:07;6.40;;;5.70;;
4422;SDS011;2224;49.814;8.650;2022-07-09T07:52:32;7.50;;;6.70;;
4422;SDS011;2224;49.814;8.650;2022-07-09T07:54:58;6.97;;;6.27;;
4422;SDS011;2224;49.814;8.650;2022-07-09T07:57:23;6.60;;;6.00;;
4422;SDS011;2224;49.814;8.650;2022-07-09T07:59:48;7.47;;;5.63;;
4422;SDS011;2224;49.814;8.650;2022-07-09T08:02:14;7.83;;;6.63;;
4422;SDS011;2224;49.814;8.650;2022-07-09T08:04:39;8.10;;;6.20;;
4422;SDS011;2224;49.814;8.650;2022-07-09T08:07:05;7.40;;;6.70;;
4422;SDS011;2224;49.814;8.650;2022-07-09T08:09:30;8.73;;;7.03;;
4422;SDS011;2224;49.814;8.650;2022-07-09T08:11:57;9.97;;;6.60;;
4422;SDS011;2224;49.814;8.650;2022-07-09T08:14:23;8.80;;;7.80;;
4422;SDS011;2224;49.814;8.650;2022-07-09T08:16:48;9.37;;;7.60;;
4422;SDS011;2224;49.814;8.650;2022-07-09T08:19:13;7.87;;;7.10;;
4422;SDS011;2224;49.814;8.650;2022-07-09T08:21:40;9.43;;;7.50;;
4422;SDS011;2224;49.814;8.650;2022-07-09T08:24:06;9.00;;;6.10;;
4422;SDS011;2224;49.814;8.650;2022-07-09T08:26:31;9.23;;;7.47;;
4422;SDS011;2224;49.814;8.650;2022-07-09T08:28:57;7.60;;;6.83;;
4422;SDS011;2224;49.814;8.650;2022-07-09T08:31:22;7.10;;;6.50;;
4422;SDS011;2224;49.814;8.650;2022-07-09T08:33:49;8.10;;;6.30;;
4422;SDS011;2224;49.814;8.650;2022-07-09T08:36:15;6.70;;;5.70;;
4422;SDS011;2224;49.814;8.650;2022-07-09T08:38:41;9.83;;;6.03;;
4422;SDS011;2224;49.814;8.650;2022-07-09T08:41:06;6.30;;;5.70;;
4422;SDS011;2224;49.814;8.650;2022-07-09T08:43:32;7.70;;;5.77;;
4422;SDS011;2224;49.814;8.650;2022-07-09T08:45:59;7.30;;;6.60;;
4422;SDS011;2224;49.814;8.650;2022-07-09T08:48:24;8.00;;;6.10;;
4422;SDS011;2224;49.814;8.650;2022-07-09T08:50:49;7.90;;;5.50;;
4422;SDS011;2224;49.814;8.650;2022-07-09T08:53:16;9.70;;;7.60;;
4422;SDS011;2224;49.814;8.650;2022-07-09T08:55:43;9.47;;;7.97;;
4422;SDS011;2224;49.814;8.650;2022-07-09T08:58:13;6.27;;;5.50;;
4422;SDS011;2224;49.814;8.650;2022-07-09T09:00:39;7.60;;;6.90;;
4422;SDS011;2224;49.814;8.650;2022-07-09T09:03:07;7.10;;;6.40;;
4422;SDS011;2224;49.814;8.650;2022-07-09T09:05:33;8.40;;;7.50;;
4422;SDS011;2224;49.814;8.650;2022-07-09T09:07:58;7.93;;;5.60;;
4422;SDS011;2224;49.814;8.650;2022-07-09T09:10:25;7.53;;;6.27;;
4422;SDS011;2224;49.814;8.650;2022-07-09T09:12:57;6.70;;;5.60;;
4422;SDS011;2224;49.814;8.650;2022-07-09T09:15:23;7.23;;;5.90;;
4422;SDS011;2224;49.814;8.650;2022-07-09T09:17:49;5.80;;;5.30;;
4422;SDS011;2224;49.814;8.650;2022-07-09T09:20:15;6.93;;;5.77;;
4422;SDS011;2224;49.814;8.650;2022-07-09T09:22:45;6.70;;;6.10;;
4422;SDS011;2224;49.814;8.650;2022-07-09T09:25:18;7.33;;;6.20;;
4422;SDS011;2224;49.814;8.650;2022-07-09T09:27:50;9.43;;;6.87;;
4422;SDS011;2224;49.814;8.650;2022-07-09T09:30:19;7.37;;;6.57;;
4422;SDS011;2224;49.814;8.650;2022-07-09T09:32:53;12.27;;;6.10;;
4422;SDS011;2224;49.814;8.650;2022-07-09T09:35:20;6.73;;;5.90;;
4422;SDS011;2224;49.814;8.650;2022-07-09T09:37:45;6.50;;;5.90;;
4422;SDS011;2224;49.814;8.650;2022-07-09T09:40:11;8.40;;;6.30;;
4422;SDS011;2224;49.814;8.650;2022-07-09T09:42:40;5.80;;;4.97;;
4422;SDS011;2224;49.814;8.650;2022-07-09T09:45:06;7.30;;;6.60;;
4422;SDS011;2224;49.814;8.650;2022-07-09T09:47:32;6.27;;;5.10;;
4422;SDS011;2224;49.814;8.650;2022-07-09T09:49:58;6.10;;;5.50;;
4422;SDS011;2224;49.814;8.650;2022-07-09T09:52:25;5.80;;;5.30;;
4422;SDS011;2224;49.814;8.650;2022-07-09T09:54:51;8.17;;;5.67;;
4422;SDS011;2224;49.814;8.650;2022-07-09T09:57:17;5.33;;;4.83;;
4422;SDS011;2224;49.814;8.650;2022-07-09T09:59:44;5.00;;;4.70;;
4422;SDS011;2224;49.814;8.650;2022-07-09T10:02:13;5.73;;;5.13;;
4422;SDS011;2224;49.814;8.650;2022-07-09T10:04:40;4.87;;;4.33;;
4422;SDS011;2224;49.814;8.650;2022-07-09T10:07:08;5.27;;;4.87;;
4422;SDS011;2224;49.814;8.650;2022-07-09T10:09:34;4.70;;;4.30;;
4422;SDS011;2224;49.814;8.650;2022-07-09T10:11:59;5.50;;;4.50;;
4422;SDS011;2224;49.814;8.650;2022-07-09T10:17:10;4.70;;;4.30;;
4422;SDS011;2224;49.814;8.650;2022-07-09T10:19:36;7.13;;;4.00;;
4422;SDS011;2224;49.814;8.650;2022-07-09T10:22:02;5.93;;;4.73;;
4422;SDS011;2224;49.814;8.650;2022-07-09T10:24:28;4.50;;;3.83;;
4422;SDS011;2224;49.814;8.650;2022-07-09T10:29:30;3.70;;;3.30;;
4422;SDS011;2224;49.814;8.650;2022-07-09T10:31:56;3.60;;;3.40;;
4422;SDS011;2224;49.814;8.650;2022-07-09T10:36:56;3.70;;;3.20;;
4422;SDS011;2224;49.814;8.650;2022-07-09T10:39:23;4.03;;;3.30;;
4422;SDS011;2224;49.814;8.650;2022-07-09T10:41:57;4.30;;;3.67;;
4422;SDS011;2224;49.814;8.650;2022-07-09T10:44:38;4.00;;;3.70;;
4422;SDS011;2224;49.814;8.650;2022-07-09T10:47:05;3.73;;;3.10;;
4422;SDS011;2224;49.814;8.650;2022-07-09T10:49:30;4.20;;;3.87;;
4422;SDS011;2224;49.814;8.650;2022-07-09T10:51:58;4.33;;;3.93;;
4422;SDS011;2224;49.814;8.650;2022-07-09T10:54:24;4.27;;;3.97;;
4422;SDS011;2224;49.814;8.650;2022-07-09T10:56:50;4.20;;;3.80;;
4422;SDS011;2224;49.814;8.650;2022-07-09T10:59:17;4.43;;;3.27;;
4422;SDS011;2224;49.814;8.650;2022-07-09T11:01:45;3.80;;;3.50;;
4422;SDS011;2224;49.814;8.650;2022-07-09T11:04:10;3.43;;;3.13;;
4422;SDS011;2224;49.814;8.650;2022-07-09T11:06:45;3.10;;;2.90;;
4422;SDS011;2224;49.814;8.650;2022-07-09T11:09:14;3.37;;;2.60;;
4422;SDS011;2224;49.814;8.650;2022-07-09T11:11:42;4.17;;;2.80;;
4422;SDS011;2224;49.814;8.650;2022-07-09T11:14:09;4.03;;;2.90;;
4422;SDS011;2224;49.814;8.650;2022-07-09T11:16:35;2.93;;;2.50;;
4422;SDS011;2224;49.814;8.650;2022-07-09T11:19:16;2.27;;;2.07;;
4422;SDS011;2224;49.814;8.650;2022-07-09T11:21:43;2.17;;;2.07;;
4422;SDS011;2224;49.814;8.650;2022-07-09T11:24:15;3.67;;;2.33;;
4422;SDS011;2224;49.814;8.650;2022-07-09T11:26:42;2.63;;;2.13;;
4422;SDS011;2224;49.814;8.650;2022-07-09T11:29:08;2.60;;;2.40;;
4422;SDS011;2224;49.814;8.650;2022-07-09T11:31:34;2.63;;;2.43;;
4422;SDS011;2224;49.814;8.650;2022-07-09T11:34:00;2.67;;;2.33;;
4422;SDS011;2224;49.814;8.650;2022-07-09T11:36:38;2.73;;;1.90;;
4422;SDS011;2224;49.814;8.650;2022-07-09T11:39:04;5.00;;;2.30;;
4422;SDS011;2224;49.814;8.650;2022-07-09T11:41:42;3.00;;;2.50;;
4422;SDS011;2224;49.814;8.650;2022-07-09T11:44:08;2.50;;;2.30;;
4422;SDS011;2224;49.814;8.650;2022-07-09T11:46:34;2.50;;;2.10;;
4422;SDS011;2224;49.814;8.650;2022-07-09T11:49:00;2.40;;;2.10;;
4422;SDS011;2224;49.814;8.650;2022-07-09T11:51:26;1.90;;;1.80;;
4422;SDS011;2224;49.814;8.650;2022-07-09T11:53:52;2.77;;;2.00;;
4422;SDS011;2224;49.814;8.650;2022-07-09T11:56:17;5.00;;;2.40;;
4422;SDS011;2224;49.814;8.650;2022-07-09T11:58:48;3.43;;;1.83;;
4422;SDS011;2224;49.814;8.650;2022-07-09T12:01:14;2.70;;;2.50;;
4422;SDS011;2224;49.814;8.650;2022-07-09T12:03:45;2.40;;;2.20;;
4422;SDS011;2224;49.814;8.650;2022-07-09T12:06:12;2.50;;;2.30;;
4422;SDS011;2224;49.814;8.650;2022-07-09T12:08:39;4.00;;;2.90;;
4422;SDS011;2224;49.814;8.650;2022-07-09T12:11:04;3.13;;;2.37;;
4422;SDS011;2224;49.814;8.650;2022-07-09T12:13:30;3.10;;;2.90;;
4422;SDS011;2224;49.814;8.650;2022-07-09T12:15:55;3.53;;;2.93;;
4422;SDS011;2224;49.814;8.650;2022-07-09T12:18:20;4.70;;;3.03;;
4422;SDS011;2224;49.814;8.650;2022-07-09T12:20:46;2.70;;;2.50;;
4422;SDS011;2224;49.814;8.650;2022-07-09T12:23:11;3.47;;;3.27;;
4422;SDS011;2224;49.814;8.650;2022-07-09T12:25:36;3.57;;;3.27;;
4422;SDS011;2224;49.814;8.650;2022-07-09T12:28:02;3.50;;;3.20;;
4422;SDS011;2224;49.814;8.650;2022-07-09T12:30:27;3.40;;;3.13;;
4422;SDS011;2224;49.814;8.650;2022-07-09T12:32:54;3.37;;;3.07;;
4422;SDS011;2224;49.814;8.650;2022-07-09T12:35:21;4.53;;;3.30;;
4422;SDS011;2224;49.814;8.650;2022-07-09T12:37:46;3.50;;;3.20;;
4422;SDS011;2224;49.814;8.650;2022-07-09T12:40:11;3.13;;;2.60;;
4422;SDS011;2224;49.814;8.650;2022-07-09T12:42:37;3.00;;;2.60;;
4422;SDS011;2224;49.814;8.650;2022-07-09T12:45:03;3.40;;;3.00;;
4422;SDS011;2224;49.814;8.650;2022-07-09T12:47:29;2.60;;;2.50;;
4422;SDS011;2224;49.814;8.650;2022-07-09T12:49:54;3.03;;;2.83;;
4422;SDS011;2224;49.814;8.650;2022-07-09T12:52:20;3.33;;;3.00;;
4422;SDS011;2224;49.814;8.650;2022-07-09T12:54:45;3.10;;;2.73;;
4422;SDS011;2224;49.814;8.650;2022-07-09T12:57:10;4.37;;;2.53;;
4422;SDS011;2224;49.814;8.650;2022-07-09T12:59:36;3.27;;;3.07;;
4422;SDS011;2224;49.814;8.650;2022-07-09T13:02:02;3.77;;;3.47;;
4422;SDS011;2224;49.814;8.650;2022-07-09T13:04:28;3.63;;;3.00;;
4422;SDS011;2224;49.814;8.650;2022-07-09T13:06:53;3.00;;;2.80;;
4422;SDS011;2224;49.814;8.650;2022-07-09T13:09:18;4.30;;;4.00;;
4422;SDS011;2224;49.814;8.650;2022-07-09T13:11:44;3.37;;;3.17;;
4422;SDS011;2224;49.814;8.650;2022-07-09T13:14:09;4.90;;;4.60;;
4422;SDS011;2224;49.814;8.650;2022-07-09T13:16:35;5.00;;;3.40;;
4422;SDS011;2224;49.814;8.650;2022-07-09T13:19:01;3.40;;;3.10;;
4422;SDS011;2224;49.814;8.650;2022-07-09T13:21:27;3.67;;;3.37;;
4422;SDS011;2224;49.814;8.650;2022-07-09T13:23:54;3.70;;;3.40;;
4422;SDS011;2224;49.814;8.650;2022-07-09T13:26:19;3.90;;;3.50;;
4422;SDS011;2224;49.814;8.650;2022-07-09T13:28:45;4.20;;;3.30;;
4422;SDS011;2224;49.814;8.650;2022-07-09T13:31:10;5.00;;;3.57;;
4422;SDS011;2224;49.814;8.650;2022-07-09T13:33:36;2.83;;;2.63;;
4422;SDS011;2224;49.814;8.650;2022-07-09T13:36:02;3.80;;;2.77;;
4422;SDS011;2224;49.814;8.650;2022-07-09T13:38:28;4.40;;;3.37;;
4422;SDS011;2224;49.814;8.650;2022-07-09T13:40:54;3.30;;;2.87;;
4422;SDS011;2224;49.814;8.650;2022-07-09T13:43:20;4.00;;;3.20;;
4422;SDS011;2224;49.814;8.650;2022-07-09T13:45:46;4.20;;;3.77;;
4422;SDS011;2224;49.814;8.650;2022-07-09T13:48:11;3.70;;;3.40;;
4422;SDS011;2224;49.814;8.650;2022-07-09T13:50:36;2.90;;;2.10;;
4422;SDS011;2224;49.814;8.650;2022-07-09T13:53:02;3.03;;;2.73;;
4422;SDS011;2224;49.814;8.650;2022-07-09T13:55:28;2.80;;;2.60;;
4422;SDS011;2224;49.814;8.650;2022-07-09T13:57:54;2.90;;;2.70;;
4422;SDS011;2224;49.814;8.650;2022-07-09T14:00:19;3.10;;;2.90;;
4422;SDS011;2224;49.814;8.650;2022-07-09T14:02:46;4.27;;;2.50;;
4422;SDS011;2224;49.814;8.650;2022-07-09T14:05:11;7.30;;;2.80;;
4422;SDS011;2224;49.814;8.650;2022-07-09T14:07:37;2.10;;;1.93;;
4422;SDS011;2224;49.814;8.650;2022-07-09T14:10:02;3.00;;;2.53;;
4422;SDS011;2224;49.814;8.650;2022-07-09T14:12:28;2.97;;;2.77;;
4422;SDS011;2224;49.814;8.650;2022-07-09T14:14:53;3.27;;;2.07;;
4422;SDS011;2224;49.814;8.650;2022-07-09T14:17:19;3.13;;;1.93;;
4422;SDS011;2224;49.814;8.650;2022-07-09T14:19:44;2.40;;;2.07;;
4422;SDS011;2224;49.814;8.650;2022-07-09T14:22:10;2.33;;;2.00;;
4422;SDS011;2224;49.814;8.650;2022-07-09T14:24:36;2.27;;;2.07;;
4422;SDS011;2224;49.814;8.650;2022-07-09T14:27:02;2.27;;;2.07;;
4422;SDS011;2224;49.814;8.650;2022-07-09T14:29:28;2.10;;;1.90;;
4422;SDS011;2224;49.814;8.650;2022-07-09T14:31:53;2.50;;;2.30;;
4422;SDS011;2224;49.814;8.650;2022-07-09T14:34:18;3.13;;;2.53;;
4422;SDS011;2224;49.814;8.650;2022-07-09T14:36:44;2.40;;;2.30;;
4422;SDS011;2224;49.814;8.650;2022-07-09T14:39:09;2.60;;;2.40;;
4422;SDS011;2224;49.814;8.650;2022-07-09T14:41:35;2.17;;;1.97;;
4422;SDS011;2224;49.814;8.650;2022-07-09T14:44:01;2.57;;;2.37;;
4422;SDS011;2224;49.814;8.650;2022-07-09T14:46:29;2.60;;;2.40;;
4422;SDS011;2224;49.814;8.650;2022-07-09T14:48:55;2.83;;;2.37;;
4422;SDS011;2224;49.814;8.650;2022-07-09T14:51:20;2.93;;;2.43;;
4422;SDS011;2224;49.814;8.650;2022-07-09T14:53:46;3.37;;;3.10;;
4422;SDS011;2224;49.814;8.650;2022-07-09T14:56:11;2.63;;;2.10;;
4422;SDS011;2224;49.814;8.650;2022-07-09T14:58:36;2.50;;;2.30;;
4422;SDS011;2224;49.814;8.650;2022-07-09T15:01:02;2.67;;;2.47;;
4422;SDS011;2224;49.814;8.650;2022-07-09T15:03:28;2.20;;;2.00;;
4422;SDS011;2224;49.814;8.650;2022-07-09T15:05:53;3.50;;;2.23;;
4422;SDS011;2224;49.814;8.650;2022-07-09T15:08:19;2.77;;;2.20;;
4422;SDS011;2224;49.814;8.650;2022-07-09T15:10:44;2.63;;;2.03;;
4422;SDS011;2224;49.814;8.650;2022-07-09T15:13:10;2.63;;;2.43;;
4422;SDS011;2224;49.814;8.650;2022-07-09T15:15:35;2.47;;;2.03;;